sensor_id;sensor_type;location;lat;lon;timestamp;P1;durP1;ratioP1;P2;durP2;ratioP2
51485;SDS011;37565;51.352;6.412;2023-03-31T17:33:00;10.75;;;4.43;;
51485;SDS011;37565;51.352;6.412;2023-03-31T17:35:29;10.07;;;4.10;;
51485;SDS011;37565;51.352;6.412;2023-03-31T17:37:57;11.52;;;3.67;;
51485;SDS011;37565;51.352;6.412;2023-03-31T17:40:25;7.93;;;3.00;;
51485;SDS011;37565;51.352;6.412;2023-03-31T17:42:53;10.57;;;3.92;;
51485;SDS011;37565;51.352;6.412;2023-03-31T17:45:21;6.88;;;3.42;;
51485;SDS011;37565;51.352;6.412;2023-03-31T17:47:50;11.65;;;2.78;;
51485;SDS011;37565;51.352;6.412;2023-03-31T17:50:19;11.38;;;3.22;;
51485;SDS011;37565;51.352;6.412;2023-03-31T17:52:48;8.77;;;3.15;;
51485;SDS011;37565;51.352;6.412;2023-03-31T17:55:16;5.78;;;3.03;;
51485;SDS011;37565;51.352;6.412;2023-03-31T17:57:45;10.02;;;2.72;;
51485;SDS011;37565;51.352;6.412;2023-03-31T18:00:13;6.93;;;3.08;;
51485;SDS011;37565;51.352;6.412;2023-03-31T18:02:41;7.85;;;2.25;;
51485;SDS011;37565;51.352;6.412;2023-03-31T18:05:09;5.95;;;2.13;;
51485;SDS011;37565;51.352;6.412;2023-03-31T18:07:39;7.30;;;2.20;;
51485;SDS011;37565;51.352;6.412;2023-03-31T18:10:07;5.25;;;1.90;;
51485;SDS011;37565;51.352;6.412;2023-03-31T18:12:36;7.32;;;1.73;;
51485;SDS011;37565;51.352;6.412;2023-03-31T18:15:05;3.70;;;2.38;;
51485;SDS011;37565;51.352;6.412;2023-03-31T18:17:34;5.88;;;2.22;;
51485;SDS011;37565;51.352;6.412;2023-03-31T18:20:03;4.90;;;1.70;;
51485;SDS011;37565;51.352;6.412;2023-03-31T18:22:31;4.05;;;1.92;;
51485;SDS011;37565;51.352;6.412;2023-03-31T18:25:00;4.63;;;1.80;;
51485;SDS011;37565;51.352;6.412;2023-03-31T18:27:29;6.07;;;2.80;;
51485;SDS011;37565;51.352;6.412;2023-03-31T18:29:56;5.10;;;2.90;;
51485;SDS011;37565;51.352;6.412;2023-03-31T18:32:24;6.57;;;4.18;;
51485;SDS011;37565;51.352;6.412;2023-03-31T18:34:52;4.32;;;2.78;;
51485;SDS011;37565;51.352;6.412;2023-03-31T18:37:21;13.82;;;3.70;;
51485;SDS011;37565;51.352;6.412;2023-03-31T18:39:49;8.63;;;3.80;;
51485;SDS011;37565;51.352;6.412;2023-03-31T18:42:18;7.50;;;4.68;;
51485;SDS011;37565;51.352;6.412;2023-03-31T18:44:50;5.90;;;4.82;;
51485;SDS011;37565;51.352;6.412;2023-03-31T18:47:18;8.25;;;5.38;;
51485;SDS011;37565;51.352;6.412;2023-03-31T18:49:46;8.38;;;5.68;;
51485;SDS011;37565;51.352;6.412;2023-03-31T18:52:18;11.10;;;5.85;;
51485;SDS011;37565;51.352;6.412;2023-03-31T18:54:47;8.07;;;6.03;;
51485;SDS011;37565;51.352;6.412;2023-03-31T18:57:17;11.55;;;6.60;;
51485;SDS011;37565;51.352;6.412;2023-03-31T18:59:46;8.77;;;5.78;;
51485;SDS011;37565;51.352;6.412;2023-03-31T19:02:14;10.10;;;6.78;;
51485;SDS011;37565;51.352;6.412;2023-03-31T19:04:43;11.93;;;7.35;;
51485;SDS011;37565;51.352;6.412;2023-03-31T19:07:12;10.52;;;6.85;;
51485;SDS011;37565;51.352;6.412;2023-03-31T19:09:40;9.75;;;6.97;;
51485;SDS011;37565;51.352;6.412;2023-03-31T19:12:08;10.43;;;7.68;;
51485;SDS011;37565;51.352;6.412;2023-03-31T19:14:38;11.35;;;7.72;;
51485;SDS011;37565;51.352;6.412;2023-03-31T19:17:06;11.10;;;8.90;;
51485;SDS011;37565;51.352;6.412;2023-03-31T19:19:34;11.32;;;8.60;;
51485;SDS011;37565;51.352;6.412;2023-03-31T19:22:03;12.18;;;9.05;;
51485;SDS011;37565;51.352;6.412;2023-03-31T19:24:31;10.23;;;8.05;;
51485;SDS011;37565;51.352;6.412;2023-03-31T19:26:59;12.55;;;8.18;;
51485;SDS011;37565;51.352;6.412;2023-03-31T19:29:26;15.65;;;9.38;;
51485;SDS011;37565;51.352;6.412;2023-03-31T19:31:56;11.40;;;8.07;;
51485;SDS011;37565;51.352;6.412;2023-03-31T19:34:24;11.00;;;7.68;;
51485;SDS011;37565;51.352;6.412;2023-03-31T19:36:52;13.43;;;8.70;;
51485;SDS011;37565;51.352;6.412;2023-03-31T19:39:20;12.18;;;7.82;;
51485;SDS011;37565;51.352;6.412;2023-03-31T19:41:50;11.32;;;9.68;;
51485;SDS011;37565;51.352;6.412;2023-03-31T19:44:18;11.38;;;8.52;;
51485;SDS011;37565;51.352;6.412;2023-03-31T19:46:46;17.80;;;8.45;;
51485;SDS011;37565;51.352;6.412;2023-03-31T19:49:15;11.05;;;8.38;;
51485;SDS011;37565;51.352;6.412;2023-03-31T19:51:44;11.85;;;8.20;;
51485;SDS011;37565;51.352;6.412;2023-03-31T19:54:12;12.23;;;8.05;;
51485;SDS011;37565;51.352;6.412;2023-03-31T19:56:40;10.43;;;7.93;;
51485;SDS011;37565;51.352;6.412;2023-03-31T19:59:08;19.58;;;10.73;;
51485;SDS011;37565;51.352;6.412;2023-03-31T20:01:36;10.88;;;8.73;;
51485;SDS011;37565;51.352;6.412;2023-03-31T20:04:04;10.32;;;8.13;;
51485;SDS011;37565;51.352;6.412;2023-03-31T20:06:33;13.43;;;9.18;;
51485;SDS011;37565;51.352;6.412;2023-03-31T20:09:02;10.50;;;8.18;;
51485;SDS011;37565;51.352;6.412;2023-03-31T20:11:31;11.25;;;8.25;;
51485;SDS011;37565;51.352;6.412;2023-03-31T20:13:59;11.35;;;8.68;;
51485;SDS011;37565;51.352;6.412;2023-03-31T20:16:29;10.80;;;8.65;;
51485;SDS011;37565;51.352;6.412;2023-03-31T20:18:58;13.00;;;9.70;;
51485;SDS011;37565;51.352;6.412;2023-03-31T20:21:30;13.55;;;8.77;;
51485;SDS011;37565;51.352;6.412;2023-03-31T20:24:01;12.73;;;8.70;;
51485;SDS011;37565;51.352;6.412;2023-03-31T20:26:29;11.90;;;9.52;;
51485;SDS011;37565;51.352;6.412;2023-03-31T20:29:00;11.20;;;8.73;;
51485;SDS011;37565;51.352;6.412;2023-03-31T20:31:30;12.85;;;9.20;;
51485;SDS011;37565;51.352;6.412;2023-03-31T20:34:01;11.52;;;8.70;;
51485;SDS011;37565;51.352;6.412;2023-03-31T20:36:31;10.82;;;8.90;;
51485;SDS011;37565;51.352;6.412;2023-03-31T20:38:59;11.70;;;8.68;;
51485;SDS011;37565;51.352;6.412;2023-03-31T20:41:31;11.65;;;8.57;;
51485;SDS011;37565;51.352;6.412;2023-03-31T20:43:59;13.95;;;9.13;;
51485;SDS011;37565;51.352;6.412;2023-03-31T20:46:27;13.27;;;9.65;;
51485;SDS011;37565;51.352;6.412;2023-03-31T20:48:56;12.30;;;10.25;;
51485;SDS011;37565;51.352;6.412;2023-03-31T20:51:25;23.80;;;13.85;;
51485;SDS011;37565;51.352;6.412;2023-03-31T20:53:55;22.13;;;16.05;;
51485;SDS011;37565;51.352;6.412;2023-03-31T20:56:26;26.02;;;18.42;;
51485;SDS011;37565;51.352;6.412;2023-03-31T20:58:54;30.58;;;20.70;;
51485;SDS011;37565;51.352;6.412;2023-03-31T21:01:25;33.78;;;21.17;;
51485;SDS011;37565;51.352;6.412;2023-03-31T21:03:56;32.00;;;22.33;;
51485;SDS011;37565;51.352;6.412;2023-03-31T21:06:26;30.17;;;20.67;;
51485;SDS011;37565;51.352;6.412;2023-03-31T21:08:56;35.20;;;23.10;;
51485;SDS011;37565;51.352;6.412;2023-03-31T21:11:25;38.67;;;23.85;;
51485;SDS011;37565;51.352;6.412;2023-03-31T21:13:53;32.15;;;22.10;;
51485;SDS011;37565;51.352;6.412;2023-03-31T21:16:21;35.83;;;23.52;;
51485;SDS011;37565;51.352;6.412;2023-03-31T21:18:50;37.35;;;23.95;;
51485;SDS011;37565;51.352;6.412;2023-03-31T21:21:20;46.45;;;24.83;;
51485;SDS011;37565;51.352;6.412;2023-03-31T21:23:50;37.00;;;24.08;;
51485;SDS011;37565;51.352;6.412;2023-03-31T21:26:18;41.28;;;24.25;;
51485;SDS011;37565;51.352;6.412;2023-03-31T21:28:49;40.22;;;25.00;;
51485;SDS011;37565;51.352;6.412;2023-03-31T21:31:19;38.20;;;25.67;;
51485;SDS011;37565;51.352;6.412;2023-03-31T21:33:49;40.70;;;25.88;;
51485;SDS011;37565;51.352;6.412;2023-03-31T21:36:19;44.65;;;27.25;;
51485;SDS011;37565;51.352;6.412;2023-03-31T21:38:48;43.08;;;27.42;;
51485;SDS011;37565;51.352;6.412;2023-03-31T21:41:18;46.60;;;28.52;;
51485;SDS011;37565;51.352;6.412;2023-03-31T21:43:50;43.63;;;28.52;;
51485;SDS011;37565;51.352;6.412;2023-03-31T21:46:20;42.70;;;26.63;;
51485;SDS011;37565;51.352;6.412;2023-03-31T21:48:51;46.25;;;30.13;;
51485;SDS011;37565;51.352;6.412;2023-03-31T21:51:20;44.33;;;28.75;;
51485;SDS011;37565;51.352;6.412;2023-03-31T21:53:48;46.40;;;30.02;;
51485;SDS011;37565;51.352;6.412;2023-03-31T21:56:18;49.53;;;31.77;;
51485;SDS011;37565;51.352;6.412;2023-03-31T21:58:46;46.88;;;29.50;;
51485;SDS011;37565;51.352;6.412;2023-03-31T22:01:15;50.13;;;29.52;;
51485;SDS011;37565;51.352;6.412;2023-03-31T22:03:43;64.97;;;40.25;;
51485;SDS011;37565;51.352;6.412;2023-03-31T22:06:12;48.80;;;30.45;;
51485;SDS011;37565;51.352;6.412;2023-03-31T22:08:40;51.60;;;30.33;;
51485;SDS011;37565;51.352;6.412;2023-03-31T22:11:09;53.17;;;32.63;;
51485;SDS011;37565;51.352;6.412;2023-03-31T22:13:38;53.15;;;32.83;;
51485;SDS011;37565;51.352;6.412;2023-03-31T22:16:12;57.83;;;33.63;;
51485;SDS011;37565;51.352;6.412;2023-03-31T22:18:43;49.08;;;32.17;;
51485;SDS011;37565;51.352;6.412;2023-03-31T22:21:13;53.05;;;31.90;;
51485;SDS011;37565;51.352;6.412;2023-03-31T22:23:42;53.25;;;33.92;;
51485;SDS011;37565;51.352;6.412;2023-03-31T22:26:10;59.03;;;34.90;;
51485;SDS011;37565;51.352;6.412;2023-03-31T22:28:38;56.75;;;35.60;;
51485;SDS011;37565;51.352;6.412;2023-03-31T22:31:06;50.53;;;33.90;;
51485;SDS011;37565;51.352;6.412;2023-03-31T22:33:36;54.58;;;34.38;;
51485;SDS011;37565;51.352;6.412;2023-03-31T22:36:05;54.80;;;33.28;;
51485;SDS011;37565;51.352;6.412;2023-03-31T22:38:33;57.72;;;34.85;;
51485;SDS011;37565;51.352;6.412;2023-03-31T22:41:01;51.15;;;32.75;;
51485;SDS011;37565;51.352;6.412;2023-03-31T22:43:30;56.80;;;36.17;;
51485;SDS011;37565;51.352;6.412;2023-03-31T22:46:00;55.15;;;36.22;;
51485;SDS011;37565;51.352;6.412;2023-03-31T22:48:29;61.47;;;37.60;;
51485;SDS011;37565;51.352;6.412;2023-03-31T22:50:58;57.40;;;36.65;;
51485;SDS011;37565;51.352;6.412;2023-03-31T22:53:29;60.30;;;37.20;;
